sensor_id;sensor_type;location;lat;lon;timestamp;temperature;humidity
65072;DHT22;51663;52.310;17.016;2022-11-20T00:02:34;26.10;21.20
65072;DHT22;51663;52.310;17.016;2022-11-20T00:05:40;26.00;21.10
65072;DHT22;51663;52.310;17.016;2022-11-20T00:08:43;26.00;21.20
65072;DHT22;51663;52.310;17.016;2022-11-20T00:11:45;26.20;21.30
65072;DHT22;51663;52.310;17.016;2022-11-20T00:14:48;26.00;21.20
65072;DHT22;51663;52.310;17.016;2022-11-20T00:17:51;26.10;21.30
65072;DHT22;51663;52.310;17.016;2022-11-20T00:20:52;26.10;21.30
65072;DHT22;51663;52.310;17.016;2022-11-20T00:23:56;26.30;21.20
65072;DHT22;51663;52.310;17.016;2022-11-20T00:26:58;26.30;21.30
65072;DHT22;51663;52.310;17.016;2022-11-20T00:30:01;26.20;21.20
65072;DHT22;51663;52.310;17.016;2022-11-20T00:33:03;26.20;21.40
65072;DHT22;51663;52.310;17.016;2022-11-20T00:36:13;26.30;21.40
65072;DHT22;51663;52.310;17.016;2022-11-20T00:39:15;26.40;21.30
65072;DHT22;51663;52.310;17.016;2022-11-20T00:42:18;26.40;21.30
65072;DHT22;51663;52.310;17.016;2022-11-20T00:45:20;26.10;20.90
65072;DHT22;51663;52.310;17.016;2022-11-20T00:48:22;26.10;21.20
65072;DHT22;51663;52.310;17.016;2022-11-20T00:51:25;25.40;21.00
65072;DHT22;51663;52.310;17.016;2022-11-20T00:54:28;25.50;21.30
65072;DHT22;51663;52.310;17.016;2022-11-20T00:57:30;25.70;21.20
65072;DHT22;51663;52.310;17.016;2022-11-20T01:00:33;25.90;21.20
65072;DHT22;51663;52.310;17.016;2022-11-20T01:03:37;25.80;21.30
65072;DHT22;51663;52.310;17.016;2022-11-20T01:06:39;25.80;22.00
65072;DHT22;51663;52.310;17.016;2022-11-20T01:09:41;25.70;21.20
65072;DHT22;51663;52.310;17.016;2022-11-20T01:12:44;25.10;21.40
65072;DHT22;51663;52.310;17.016;2022-11-20T01:19:13;25.60;21.50
65072;DHT22;51663;52.310;17.016;2022-11-20T01:22:18;25.30;21.60
65072;DHT22;51663;52.310;17.016;2022-11-20T01:25:20;25.40;21.60
65072;DHT22;51663;52.310;17.016;2022-11-20T01:28:22;25.60;21.60
65072;DHT22;51663;52.310;17.016;2022-11-20T01:31:27;25.40;21.50
65072;DHT22;51663;52.310;17.016;2022-11-20T01:34:29;25.60;21.70
65072;DHT22;51663;52.310;17.016;2022-11-20T01:37:31;25.60;21.40
65072;DHT22;51663;52.310;17.016;2022-11-20T01:40:33;25.70;21.60
65072;DHT22;51663;52.310;17.016;2022-11-20T01:43:36;25.80;21.50
65072;DHT22;51663;52.310;17.016;2022-11-20T01:46:42;25.80;21.40
65072;DHT22;51663;52.310;17.016;2022-11-20T01:49:55;25.80;21.30
65072;DHT22;51663;52.310;17.016;2022-11-20T01:53:01;25.70;21.40
65072;DHT22;51663;52.310;17.016;2022-11-20T01:56:08;25.70;21.50
65072;DHT22;51663;52.310;17.016;2022-11-20T01:59:13;25.80;21.80
65072;DHT22;51663;52.310;17.016;2022-11-20T02:02:17;25.60;22.20
65072;DHT22;51663;52.310;17.016;2022-11-20T02:05:27;25.00;22.10
65072;DHT22;51663;52.310;17.016;2022-11-20T02:08:30;25.20;22.00
65072;DHT22;51663;52.310;17.016;2022-11-20T02:11:32;25.10;22.10
65072;DHT22;51663;52.310;17.016;2022-11-20T02:14:35;24.40;22.50
65072;DHT22;51663;52.310;17.016;2022-11-20T02:17:37;24.80;22.50
65072;DHT22;51663;52.310;17.016;2022-11-20T02:20:42;25.10;22.30
65072;DHT22;51663;52.310;17.016;2022-11-20T02:27:15;25.20;22.10
65072;DHT22;51663;52.310;17.016;2022-11-20T02:30:18;24.70;22.30
65072;DHT22;51663;52.310;17.016;2022-11-20T02:33:20;24.80;22.30
65072;DHT22;51663;52.310;17.016;2022-11-20T02:36:25;24.70;22.40
65072;DHT22;51663;52.310;17.016;2022-11-20T02:39:28;24.70;22.50
65072;DHT22;51663;52.310;17.016;2022-11-20T02:42:30;25.00;22.30
65072;DHT22;51663;52.310;17.016;2022-11-20T02:45:32;25.20;22.10
65072;DHT22;51663;52.310;17.016;2022-11-20T02:48:34;25.60;22.00
65072;DHT22;51663;52.310;17.016;2022-11-20T02:51:36;25.80;21.90
65072;DHT22;51663;52.310;17.016;2022-11-20T02:54:39;25.50;21.80
65072;DHT22;51663;52.310;17.016;2022-11-20T02:57:41;25.70;21.70
65072;DHT22;51663;52.310;17.016;2022-11-20T03:00:42;25.90;21.50
65072;DHT22;51663;52.310;17.016;2022-11-20T03:03:45;26.00;21.60
65072;DHT22;51663;52.310;17.016;2022-11-20T03:06:46;26.10;21.60
65072;DHT22;51663;52.310;17.016;2022-11-20T03:09:48;26.10;21.50
65072;DHT22;51663;52.310;17.016;2022-11-20T03:12:55;26.30;21.50
65072;DHT22;51663;52.310;17.016;2022-11-20T03:15:57;26.20;21.40
65072;DHT22;51663;52.310;17.016;2022-11-20T03:18:59;26.40;21.40
65072;DHT22;51663;52.310;17.016;2022-11-20T03:22:02;26.30;21.40
65072;DHT22;51663;52.310;17.016;2022-11-20T03:25:04;26.30;21.40
65072;DHT22;51663;52.310;17.016;2022-11-20T03:28:06;26.30;21.40
65072;DHT22;51663;52.310;17.016;2022-11-20T03:31:10;26.10;21.40
65072;DHT22;51663;52.310;17.016;2022-11-20T03:34:13;26.30;21.50
65072;DHT22;51663;52.310;17.016;2022-11-20T03:37:15;26.10;21.40
65072;DHT22;51663;52.310;17.016;2022-11-20T03:40:17;26.00;22.10
65072;DHT22;51663;52.310;17.016;2022-11-20T03:43:19;25.90;21.40
65072;DHT22;51663;52.310;17.016;2022-11-20T03:46:21;26.00;21.60
65072;DHT22;51663;52.310;17.016;2022-11-20T03:49:23;25.80;21.50
65072;DHT22;51663;52.310;17.016;2022-11-20T03:52:25;25.90;21.50
65072;DHT22;51663;52.310;17.016;2022-11-20T03:55:27;25.90;21.60
65072;DHT22;51663;52.310;17.016;2022-11-20T03:58:29;25.70;21.90
65072;DHT22;51663;52.310;17.016;2022-11-20T04:01:34;26.00;21.60
65072;DHT22;51663;52.310;17.016;2022-11-20T04:04:36;26.10;21.50
65072;DHT22;51663;52.310;17.016;2022-11-20T04:07:38;26.00;21.60
65072;DHT22;51663;52.310;17.016;2022-11-20T04:10:40;26.00;21.80
65072;DHT22;51663;52.310;17.016;2022-11-20T04:13:46;25.60;21.80
65072;DHT22;51663;52.310;17.016;2022-11-20T04:16:49;24.80;22.20
65072;DHT22;51663;52.310;17.016;2022-11-20T04:19:50;25.20;22.30
65072;DHT22;51663;52.310;17.016;2022-11-20T04:22:53;24.80;22.40
65072;DHT22;51663;52.310;17.016;2022-11-20T04:26:01;25.60;22.40
65072;DHT22;51663;52.310;17.016;2022-11-20T04:29:04;25.10;22.10
65072;DHT22;51663;52.310;17.016;2022-11-20T04:32:06;25.60;22.40
65072;DHT22;51663;52.310;17.016;2022-11-20T04:35:08;25.60;22.10
65072;DHT22;51663;52.310;17.016;2022-11-20T04:38:10;25.80;22.00
65072;DHT22;51663;52.310;17.016;2022-11-20T04:41:16;25.80;21.80
65072;DHT22;51663;52.310;17.016;2022-11-20T04:44:18;26.00;21.80
65072;DHT22;51663;52.310;17.016;2022-11-20T04:47:20;26.10;21.80
65072;DHT22;51663;52.310;17.016;2022-11-20T04:50:22;26.00;21.40
65072;DHT22;51663;52.310;17.016;2022-11-20T04:53:24;26.00;21.90
65072;DHT22;51663;52.310;17.016;2022-11-20T04:56:26;26.00;21.60
65072;DHT22;51663;52.310;17.016;2022-11-20T04:59:29;26.20;21.70
65072;DHT22;51663;52.310;17.016;2022-11-20T05:02:31;26.20;21.60
65072;DHT22;51663;52.310;17.016;2022-11-20T05:05:34;26.10;21.40
65072;DHT22;51663;52.310;17.016;2022-11-20T05:08:36;26.00;21.60
65072;DHT22;51663;52.310;17.016;2022-11-20T05:11:38;26.20;21.50
65072;DHT22;51663;52.310;17.016;2022-11-20T05:14:40;26.10;21.50
65072;DHT22;51663;52.310;17.016;2022-11-20T05:17:49;25.80;21.50
65072;DHT22;51663;52.310;17.016;2022-11-20T05:20:56;25.90;21.60
65072;DHT22;51663;52.310;17.016;2022-11-20T05:23:58;25.90;21.70
65072;DHT22;51663;52.310;17.016;2022-11-20T05:27:00;25.90;22.20
65072;DHT22;51663;52.310;17.016;2022-11-20T05:30:06;25.70;21.70
65072;DHT22;51663;52.310;17.016;2022-11-20T05:33:08;25.90;21.80
65072;DHT22;51663;52.310;17.016;2022-11-20T05:36:12;26.10;21.70
65072;DHT22;51663;52.310;17.016;2022-11-20T05:39:14;26.10;21.60
65072;DHT22;51663;52.310;17.016;2022-11-20T05:42:16;26.20;21.80
65072;DHT22;51663;52.310;17.016;2022-11-20T05:45:34;25.90;21.80
65072;DHT22;51663;52.310;17.016;2022-11-20T05:48:37;26.10;22.00
65072;DHT22;51663;52.310;17.016;2022-11-20T05:51:39;26.00;21.80
65072;DHT22;51663;52.310;17.016;2022-11-20T05:54:41;26.00;22.00
65072;DHT22;51663;52.310;17.016;2022-11-20T05:57:43;26.10;21.80
65072;DHT22;51663;52.310;17.016;2022-11-20T06:00:45;25.70;21.90
65072;DHT22;51663;52.310;17.016;2022-11-20T06:03:47;25.80;22.00
65072;DHT22;51663;52.310;17.016;2022-11-20T06:06:52;25.80;22.00
65072;DHT22;51663;52.310;17.016;2022-11-20T06:09:54;25.80;22.10
65072;DHT22;51663;52.310;17.016;2022-11-20T06:12:58;25.60;22.20
65072;DHT22;51663;52.310;17.016;2022-11-20T06:15:59;25.40;22.20
65072;DHT22;51663;52.310;17.016;2022-11-20T06:19:02;25.50;22.00
65072;DHT22;51663;52.310;17.016;2022-11-20T06:22:04;25.30;22.10
65072;DHT22;51663;52.310;17.016;2022-11-20T06:25:06;25.60;22.00
65072;DHT22;51663;52.310;17.016;2022-11-20T06:28:08;25.40;21.90
65072;DHT22;51663;52.310;17.016;2022-11-20T06:31:15;25.50;21.80
65072;DHT22;51663;52.310;17.016;2022-11-20T06:34:18;25.10;21.90
65072;DHT22;51663;52.310;17.016;2022-11-20T06:37:21;25.00;22.00
65072;DHT22;51663;52.310;17.016;2022-11-20T06:40:22;25.40;21.80
65072;DHT22;51663;52.310;17.016;2022-11-20T06:43:25;25.50;21.90
65072;DHT22;51663;52.310;17.016;2022-11-20T06:46:27;25.50;21.50
65072;DHT22;51663;52.310;17.016;2022-11-20T06:49:29;25.80;22.00
65072;DHT22;51663;52.310;17.016;2022-11-20T06:52:31;25.50;21.30
65072;DHT22;51663;52.310;17.016;2022-11-20T06:55:33;25.20;21.30
65072;DHT22;51663;52.310;17.016;2022-11-20T06:58:36;25.50;21.60
65072;DHT22;51663;52.310;17.016;2022-11-20T07:01:38;25.50;21.30
65072;DHT22;51663;52.310;17.016;2022-11-20T07:04:40;25.40;21.30
65072;DHT22;51663;52.310;17.016;2022-11-20T07:07:42;25.40;21.30
65072;DHT22;51663;52.310;17.016;2022-11-20T07:10:44;25.40;21.30
65072;DHT22;51663;52.310;17.016;2022-11-20T07:13:46;25.40;21.30
65072;DHT22;51663;52.310;17.016;2022-11-20T07:16:48;25.30;21.20
65072;DHT22;51663;52.310;17.016;2022-11-20T07:19:50;25.80;21.20
65072;DHT22;51663;52.310;17.016;2022-11-20T07:22:56;25.80;20.70
65072;DHT22;51663;52.310;17.016;2022-11-20T07:26:05;25.30;21.00
65072;DHT22;51663;52.310;17.016;2022-11-20T07:29:07;25.00;21.10
65072;DHT22;51663;52.310;17.016;2022-11-20T07:32:10;24.90;21.10
65072;DHT22;51663;52.310;17.016;2022-11-20T07:35:12;25.20;21.40
65072;DHT22;51663;52.310;17.016;2022-11-20T07:38:14;25.10;21.10
65072;DHT22;51663;52.310;17.016;2022-11-20T07:41:16;25.30;21.10
65072;DHT22;51663;52.310;17.016;2022-11-20T07:44:18;25.30;21.00
65072;DHT22;51663;52.310;17.016;2022-11-20T07:47:20;25.60;21.30
65072;DHT22;51663;52.310;17.016;2022-11-20T07:50:22;25.40;21.30
65072;DHT22;51663;52.310;17.016;2022-11-20T07:53:24;25.60;21.10
65072;DHT22;51663;52.310;17.016;2022-11-20T07:56:26;26.00;21.00
65072;DHT22;51663;52.310;17.016;2022-11-20T07:59:28;26.00;20.80
65072;DHT22;51663;52.310;17.016;2022-11-20T08:02:30;25.90;20.70
65072;DHT22;51663;52.310;17.016;2022-11-20T08:05:32;26.00;21.00
65072;DHT22;51663;52.310;17.016;2022-11-20T08:08:35;25.90;20.90
65072;DHT22;51663;52.310;17.016;2022-11-20T08:11:43;26.00;20.80
65072;DHT22;51663;52.310;17.016;2022-11-20T08:15:05;26.10;21.00
65072;DHT22;51663;52.310;17.016;2022-11-20T08:18:13;26.20;20.70
65072;DHT22;51663;52.310;17.016;2022-11-20T08:21:32;26.40;20.70
65072;DHT22;51663;52.310;17.016;2022-11-20T08:24:39;26.40;21.00
65072;DHT22;51663;52.310;17.016;2022-11-20T08:28:20;26.10;20.90
65072;DHT22;51663;52.310;17.016;2022-11-20T08:31:57;26.50;20.80
65072;DHT22;51663;52.310;17.016;2022-11-20T08:36:06;26.60;20.80
65072;DHT22;51663;52.310;17.016;2022-11-20T08:39:28;26.00;20.90
65072;DHT22;51663;52.310;17.016;2022-11-20T08:42:36;26.20;20.60
65072;DHT22;51663;52.310;17.016;2022-11-20T08:45:51;25.90;20.90
65072;DHT22;51663;52.310;17.016;2022-11-20T08:49:03;26.10;20.70
65072;DHT22;51663;52.310;17.016;2022-11-20T08:52:05;26.10;20.90
65072;DHT22;51663;52.310;17.016;2022-11-20T08:55:10;25.80;20.80
65072;DHT22;51663;52.310;17.016;2022-11-20T08:58:15;25.80;20.90
65072;DHT22;51663;52.310;17.016;2022-11-20T09:01:17;26.00;20.80
65072;DHT22;51663;52.310;17.016;2022-11-20T09:04:20;26.20;20.90
65072;DHT22;51663;52.310;17.016;2022-11-20T09:07:22;26.30;20.40
65072;DHT22;51663;52.310;17.016;2022-11-20T09:10:27;26.50;20.40
65072;DHT22;51663;52.310;17.016;2022-11-20T09:13:30;26.30;20.70
65072;DHT22;51663;52.310;17.016;2022-11-20T09:16:37;26.20;20.40
65072;DHT22;51663;52.310;17.016;2022-11-20T09:19:40;26.50;20.60
65072;DHT22;51663;52.310;17.016;2022-11-20T09:22:43;26.40;20.90
65072;DHT22;51663;52.310;17.016;2022-11-20T09:25:45;26.20;20.60
65072;DHT22;51663;52.310;17.016;2022-11-20T09:28:47;26.60;20.60
65072;DHT22;51663;52.310;17.016;2022-11-20T09:31:53;26.90;20.70
65072;DHT22;51663;52.310;17.016;2022-11-20T09:34:55;26.60;20.30
65072;DHT22;51663;52.310;17.016;2022-11-20T09:37:57;26.80;20.50
65072;DHT22;51663;52.310;17.016;2022-11-20T09:41:04;27.00;20.30
65072;DHT22;51663;52.310;17.016;2022-11-20T09:54:14;26.70;20.10
65072;DHT22;51663;52.310;17.016;2022-11-20T09:57:22;27.30;20.20
65072;DHT22;51663;52.310;17.016;2022-11-20T10:00:27;27.30;20.00
65072;DHT22;51663;52.310;17.016;2022-11-20T10:07:21;27.00;20.10
65072;DHT22;51663;52.310;17.016;2022-11-20T10:10:40;26.80;20.20
65072;DHT22;51663;52.310;17.016;2022-11-20T10:24:42;27.60;20.00
65072;DHT22;51663;52.310;17.016;2022-11-20T10:31:13;27.60;20.10
65072;DHT22;51663;52.310;17.016;2022-11-20T10:34:28;27.70;20.20
65072;DHT22;51663;52.310;17.016;2022-11-20T10:37:35;27.80;19.90
65072;DHT22;51663;52.310;17.016;2022-11-20T10:40:44;27.70;19.50
65072;DHT22;51663;52.310;17.016;2022-11-20T10:44:20;27.60;19.80
65072;DHT22;51663;52.310;17.016;2022-11-20T10:47:47;27.40;19.80
65072;DHT22;51663;52.310;17.016;2022-11-20T10:55:17;27.30;20.50
65072;DHT22;51663;52.310;17.016;2022-11-20T11:01:14;26.90;20.40
65072;DHT22;51663;52.310;17.016;2022-11-20T11:04:33;26.70;20.40
65072;DHT22;51663;52.310;17.016;2022-11-20T11:07:39;26.70;20.40
65072;DHT22;51663;52.310;17.016;2022-11-20T11:10:54;27.00;20.30
65072;DHT22;51663;52.310;17.016;2022-11-20T11:14:14;26.90;20.40
65072;DHT22;51663;52.310;17.016;2022-11-20T11:17:23;27.20;20.30
65072;DHT22;51663;52.310;17.016;2022-11-20T11:20:26;27.20;20.10
65072;DHT22;51663;52.310;17.016;2022-11-20T11:26:36;27.20;20.60
65072;DHT22;51663;52.310;17.016;2022-11-20T11:29:39;26.90;20.30
65072;DHT22;51663;52.310;17.016;2022-11-20T11:32:48;26.40;20.50
65072;DHT22;51663;52.310;17.016;2022-11-20T11:35:53;26.60;20.40
65072;DHT22;51663;52.310;17.016;2022-11-20T11:38:55;27.00;20.60
65072;DHT22;51663;52.310;17.016;2022-11-20T11:41:58;26.90;20.30
65072;DHT22;51663;52.310;17.016;2022-11-20T11:45:06;26.90;20.70
65072;DHT22;51663;52.310;17.016;2022-11-20T11:48:10;26.70;20.20
65072;DHT22;51663;52.310;17.016;2022-11-20T11:51:20;27.20;20.70
65072;DHT22;51663;52.310;17.016;2022-11-20T11:54:37;27.10;20.60
65072;DHT22;51663;52.310;17.016;2022-11-20T12:01:45;27.20;20.40
65072;DHT22;51663;52.310;17.016;2022-11-20T12:05:34;27.20;20.30
65072;DHT22;51663;52.310;17.016;2022-11-20T12:08:48;27.30;20.10
65072;DHT22;51663;52.310;17.016;2022-11-20T12:12:04;27.10;20.30
65072;DHT22;51663;52.310;17.016;2022-11-20T12:15:12;27.40;20.20
65072;DHT22;51663;52.310;17.016;2022-11-20T12:18:19;27.60;20.30
65072;DHT22;51663;52.310;17.016;2022-11-20T12:21:33;27.70;19.90
65072;DHT22;51663;52.310;17.016;2022-11-20T12:24:55;27.50;19.60
65072;DHT22;51663;52.310;17.016;2022-11-20T12:38:58;26.90;20.10
65072;DHT22;51663;52.310;17.016;2022-11-20T12:42:17;27.10;20.30
65072;DHT22;51663;52.310;17.016;2022-11-20T12:45:46;27.20;19.80
65072;DHT22;51663;52.310;17.016;2022-11-20T12:49:01;27.20;20.40
65072;DHT22;51663;52.310;17.016;2022-11-20T13:02:24;27.60;20.00
65072;DHT22;51663;52.310;17.016;2022-11-20T13:05:37;27.30;19.70
65072;DHT22;51663;52.310;17.016;2022-11-20T13:08:41;27.30;20.20
65072;DHT22;51663;52.310;17.016;2022-11-20T13:11:55;27.50;20.00
65072;DHT22;51663;52.310;17.016;2022-11-20T13:18:23;27.60;19.90
65072;DHT22;51663;52.310;17.016;2022-11-20T13:21:38;27.80;19.60
65072;DHT22;51663;52.310;17.016;2022-11-20T13:24:50;27.60;19.70
65072;DHT22;51663;52.310;17.016;2022-11-20T13:27:53;27.80;19.90
65072;DHT22;51663;52.310;17.016;2022-11-20T13:30:58;27.80;20.00
65072;DHT22;51663;52.310;17.016;2022-11-20T13:34:03;27.90;19.70
65072;DHT22;51663;52.310;17.016;2022-11-20T13:37:25;27.90;19.50
65072;DHT22;51663;52.310;17.016;2022-11-20T13:40:28;28.00;19.80
65072;DHT22;51663;52.310;17.016;2022-11-20T13:43:41;27.90;19.50
65072;DHT22;51663;52.310;17.016;2022-11-20T13:46:47;27.90;19.70
65072;DHT22;51663;52.310;17.016;2022-11-20T13:49:49;27.90;19.40
65072;DHT22;51663;52.310;17.016;2022-11-20T13:56:38;28.00;20.00
65072;DHT22;51663;52.310;17.016;2022-11-20T14:03:08;27.90;19.70
65072;DHT22;51663;52.310;17.016;2022-11-20T14:06:28;27.90;19.80
65072;DHT22;51663;52.310;17.016;2022-11-20T14:09:33;27.80;19.80
65072;DHT22;51663;52.310;17.016;2022-11-20T14:12:35;27.90;19.70
65072;DHT22;51663;52.310;17.016;2022-11-20T14:15:42;27.90;19.90
65072;DHT22;51663;52.310;17.016;2022-11-20T14:18:47;27.90;19.70
65072;DHT22;51663;52.310;17.016;2022-11-20T14:22:05;27.90;19.80
65072;DHT22;51663;52.310;17.016;2022-11-20T14:31:59;27.80;20.30
65072;DHT22;51663;52.310;17.016;2022-11-20T14:35:08;27.90;19.80
65072;DHT22;51663;52.310;17.016;2022-11-20T14:38:31;27.80;19.80
65072;DHT22;51663;52.310;17.016;2022-11-20T14:41:38;27.80;19.70
65072;DHT22;51663;52.310;17.016;2022-11-20T14:44:42;27.80;19.80
65072;DHT22;51663;52.310;17.016;2022-11-20T14:47:48;27.70;20.00
65072;DHT22;51663;52.310;17.016;2022-11-20T14:50:53;27.70;19.80
65072;DHT22;51663;52.310;17.016;2022-11-20T14:54:16;27.80;20.00
65072;DHT22;51663;52.310;17.016;2022-11-20T14:57:29;27.80;20.20
65072;DHT22;51663;52.310;17.016;2022-11-20T15:00:34;27.70;20.50
65072;DHT22;51663;52.310;17.016;2022-11-20T15:03:38;27.70;20.20
65072;DHT22;51663;52.310;17.016;2022-11-20T15:06:51;27.70;19.60
65072;DHT22;51663;52.310;17.016;2022-11-20T15:10:07;27.70;20.10
65072;DHT22;51663;52.310;17.016;2022-11-20T15:13:20;27.80;20.70
65072;DHT22;51663;52.310;17.016;2022-11-20T15:16:25;27.80;20.90
65072;DHT22;51663;52.310;17.016;2022-11-20T15:19:29;27.80;20.90
65072;DHT22;51663;52.310;17.016;2022-11-20T15:22:31;27.80;20.70
65072;DHT22;51663;52.310;17.016;2022-11-20T15:25:33;27.80;20.80
65072;DHT22;51663;52.310;17.016;2022-11-20T15:28:42;27.70;19.90
65072;DHT22;51663;52.310;17.016;2022-11-20T15:31:45;27.70;20.30
65072;DHT22;51663;52.310;17.016;2022-11-20T15:34:47;27.70;20.70
65072;DHT22;51663;52.310;17.016;2022-11-20T15:37:49;27.70;20.70
65072;DHT22;51663;52.310;17.016;2022-11-20T15:40:51;27.70;20.90
65072;DHT22;51663;52.310;17.016;2022-11-20T15:43:53;27.60;21.10
65072;DHT22;51663;52.310;17.016;2022-11-20T15:46:55;27.70;21.20
65072;DHT22;51663;52.310;17.016;2022-11-20T15:49:58;27.70;21.10
65072;DHT22;51663;52.310;17.016;2022-11-20T15:53:00;27.60;21.00
65072;DHT22;51663;52.310;17.016;2022-11-20T15:56:02;27.60;20.60
65072;DHT22;51663;52.310;17.016;2022-11-20T15:59:04;27.50;20.50
65072;DHT22;51663;52.310;17.016;2022-11-20T16:02:14;27.40;20.90
65072;DHT22;51663;52.310;17.016;2022-11-20T16:05:20;27.40;20.80
65072;DHT22;51663;52.310;17.016;2022-11-20T16:08:24;27.30;20.70
65072;DHT22;51663;52.310;17.016;2022-11-20T16:11:27;27.30;20.70
65072;DHT22;51663;52.310;17.016;2022-11-20T16:14:29;27.20;20.90
65072;DHT22;51663;52.310;17.016;2022-11-20T16:18:08;27.20;21.10
65072;DHT22;51663;52.310;17.016;2022-11-20T16:21:26;27.20;21.10
65072;DHT22;51663;52.310;17.016;2022-11-20T16:24:32;27.20;21.00
65072;DHT22;51663;52.310;17.016;2022-11-20T16:27:34;27.30;20.50
65072;DHT22;51663;52.310;17.016;2022-11-20T16:30:36;27.20;20.10
65072;DHT22;51663;52.310;17.016;2022-11-20T16:33:39;27.10;20.50
65072;DHT22;51663;52.310;17.016;2022-11-20T16:36:43;27.20;21.10
65072;DHT22;51663;52.310;17.016;2022-11-20T16:39:47;27.20;21.10
65072;DHT22;51663;52.310;17.016;2022-11-20T16:42:48;27.30;21.10
65072;DHT22;51663;52.310;17.016;2022-11-20T16:45:53;27.40;21.80
65072;DHT22;51663;52.310;17.016;2022-11-20T16:49:06;27.30;21.10
65072;DHT22;51663;52.310;17.016;2022-11-20T16:52:08;27.30;21.10
65072;DHT22;51663;52.310;17.016;2022-11-20T16:55:10;27.30;20.70
65072;DHT22;51663;52.310;17.016;2022-11-20T16:58:13;27.30;21.10
65072;DHT22;51663;52.310;17.016;2022-11-20T17:01:18;27.10;21.10
65072;DHT22;51663;52.310;17.016;2022-11-20T17:04:23;27.00;21.20
65072;DHT22;51663;52.310;17.016;2022-11-20T17:07:26;27.00;20.90
65072;DHT22;51663;52.310;17.016;2022-11-20T17:10:28;27.00;20.90
65072;DHT22;51663;52.310;17.016;2022-11-20T17:13:30;27.00;21.00
65072;DHT22;51663;52.310;17.016;2022-11-20T17:16:40;27.00;20.80
65072;DHT22;51663;52.310;17.016;2022-11-20T17:19:42;27.00;20.90
65072;DHT22;51663;52.310;17.016;2022-11-20T17:22:44;27.00;20.60
65072;DHT22;51663;52.310;17.016;2022-11-20T17:25:46;27.10;20.80
65072;DHT22;51663;52.310;17.016;2022-11-20T17:29:09;27.10;20.90
65072;DHT22;51663;52.310;17.016;2022-11-20T17:32:12;27.10;21.00
65072;DHT22;51663;52.310;17.016;2022-11-20T17:35:20;27.10;21.60
65072;DHT22;51663;52.310;17.016;2022-11-20T17:38:24;27.10;20.90
65072;DHT22;51663;52.310;17.016;2022-11-20T17:41:29;27.10;21.10
65072;DHT22;51663;52.310;17.016;2022-11-20T17:44:37;27.10;21.10
65072;DHT22;51663;52.310;17.016;2022-11-20T17:47:43;27.10;20.90
65072;DHT22;51663;52.310;17.016;2022-11-20T17:50:48;27.10;21.50
65072;DHT22;51663;52.310;17.016;2022-11-20T17:54:07;27.00;20.90
65072;DHT22;51663;52.310;17.016;2022-11-20T17:57:13;27.00;21.10
65072;DHT22;51663;52.310;17.016;2022-11-20T18:00:35;26.90;21.10
65072;DHT22;51663;52.310;17.016;2022-11-20T18:03:38;26.90;21.00
65072;DHT22;51663;52.310;17.016;2022-11-20T18:06:41;26.90;21.10
65072;DHT22;51663;52.310;17.016;2022-11-20T18:09:43;26.80;21.10
65072;DHT22;51663;52.310;17.016;2022-11-20T18:12:45;26.90;21.10
65072;DHT22;51663;52.310;17.016;2022-11-20T18:15:47;26.90;21.20
65072;DHT22;51663;52.310;17.016;2022-11-20T18:18:49;27.00;21.10
65072;DHT22;51663;52.310;17.016;2022-11-20T18:21:53;26.90;21.10
65072;DHT22;51663;52.310;17.016;2022-11-20T18:24:56;26.90;21.00
65072;DHT22;51663;52.310;17.016;2022-11-20T18:27:57;26.90;21.10
65072;DHT22;51663;52.310;17.016;2022-11-20T18:31:06;26.90;21.00
65072;DHT22;51663;52.310;17.016;2022-11-20T18:34:09;26.90;21.00
65072;DHT22;51663;52.310;17.016;2022-11-20T18:37:13;26.90;21.00
65072;DHT22;51663;52.310;17.016;2022-11-20T18:40:16;26.90;20.90
65072;DHT22;51663;52.310;17.016;2022-11-20T18:43:18;26.90;20.90
65072;DHT22;51663;52.310;17.016;2022-11-20T18:46:39;27.00;21.20
65072;DHT22;51663;52.310;17.016;2022-11-20T18:49:46;26.90;21.10
65072;DHT22;51663;52.310;17.016;2022-11-20T18:52:53;26.70;21.40
65072;DHT22;51663;52.310;17.016;2022-11-20T18:55:55;26.80;21.30
65072;DHT22;51663;52.310;17.016;2022-11-20T18:59:01;26.80;21.30
65072;DHT22;51663;52.310;17.016;2022-11-20T19:02:04;26.80;21.40
65072;DHT22;51663;52.310;17.016;2022-11-20T19:05:06;26.80;21.50
65072;DHT22;51663;52.310;17.016;2022-11-20T19:08:08;26.70;21.10
65072;DHT22;51663;52.310;17.016;2022-11-20T19:11:11;26.80;21.20
65072;DHT22;51663;52.310;17.016;2022-11-20T19:14:13;26.70;21.20
65072;DHT22;51663;52.310;17.016;2022-11-20T19:17:16;26.80;21.00
65072;DHT22;51663;52.310;17.016;2022-11-20T19:20:18;26.80;20.90
65072;DHT22;51663;52.310;17.016;2022-11-20T19:23:21;26.90;20.80
65072;DHT22;51663;52.310;17.016;2022-11-20T19:26:24;26.90;20.80
65072;DHT22;51663;52.310;17.016;2022-11-20T19:29:26;27.00;20.90
65072;DHT22;51663;52.310;17.016;2022-11-20T19:32:29;27.00;20.90
65072;DHT22;51663;52.310;17.016;2022-11-20T19:35:31;27.00;20.80
65072;DHT22;51663;52.310;17.016;2022-11-20T19:38:34;26.80;20.70
65072;DHT22;51663;52.310;17.016;2022-11-20T19:41:37;26.70;20.60
65072;DHT22;51663;52.310;17.016;2022-11-20T19:44:40;26.60;20.80
65072;DHT22;51663;52.310;17.016;2022-11-20T19:47:45;26.70;20.90
65072;DHT22;51663;52.310;17.016;2022-11-20T19:51:13;26.60;20.90
65072;DHT22;51663;52.310;17.016;2022-11-20T19:54:15;26.50;20.70
65072;DHT22;51663;52.310;17.016;2022-11-20T19:57:19;26.50;20.70
65072;DHT22;51663;52.310;17.016;2022-11-20T20:00:23;26.50;20.90
65072;DHT22;51663;52.310;17.016;2022-11-20T20:03:32;26.50;20.90
65072;DHT22;51663;52.310;17.016;2022-11-20T20:06:36;26.30;20.80
65072;DHT22;51663;52.310;17.016;2022-11-20T20:09:39;26.40;20.90
65072;DHT22;51663;52.310;17.016;2022-11-20T20:12:42;26.40;20.90
65072;DHT22;51663;52.310;17.016;2022-11-20T20:15:47;26.50;20.90
65072;DHT22;51663;52.310;17.016;2022-11-20T20:18:53;26.30;20.60
65072;DHT22;51663;52.310;17.016;2022-11-20T20:21:56;26.20;20.60
65072;DHT22;51663;52.310;17.016;2022-11-20T20:24:58;26.30;20.50
65072;DHT22;51663;52.310;17.016;2022-11-20T20:28:00;26.30;20.40
65072;DHT22;51663;52.310;17.016;2022-11-20T20:31:06;26.20;20.30
65072;DHT22;51663;52.310;17.016;2022-11-20T20:34:09;26.20;20.50
65072;DHT22;51663;52.310;17.016;2022-11-20T20:37:12;26.20;20.30
65072;DHT22;51663;52.310;17.016;2022-11-20T20:40:14;25.80;20.20
65072;DHT22;51663;52.310;17.016;2022-11-20T20:43:17;26.00;20.30